sensor_id;sensor_type;location;lat;lon;timestamp;temperature;humidity
9305;DHT22;4690;52.422;13.486;2023-05-10T00:05:44;12.80;97.40
9305;DHT22;4690;52.422;13.486;2023-05-10T00:08:11;12.70;97.50
9305;DHT22;4690;52.422;13.486;2023-05-10T00:10:36;12.70;97.60
9305;DHT22;4690;52.422;13.486;2023-05-10T00:13:03;12.60;97.60
9305;DHT22;4690;52.422;13.486;2023-05-10T00:15:28;12.60;97.70
9305;DHT22;4690;52.422;13.486;2023-05-10T00:17:56;12.60;97.90
9305;DHT22;4690;52.422;13.486;2023-05-10T00:20:22;12.50;97.90
9305;DHT22;4690;52.422;13.486;2023-05-10T00:22:48;12.50;97.80
9305;DHT22;4690;52.422;13.486;2023-05-10T00:25:14;12.50;97.80
9305;DHT22;4690;52.422;13.486;2023-05-10T00:27:40;12.50;98.00
9305;DHT22;4690;52.422;13.486;2023-05-10T00:30:06;12.50;98.10
9305;DHT22;4690;52.422;13.486;2023-05-10T00:32:32;12.40;98.00
9305;DHT22;4690;52.422;13.486;2023-05-10T00:34:58;12.40;98.10
9305;DHT22;4690;52.422;13.486;2023-05-10T00:37:24;12.40;98.20
9305;DHT22;4690;52.422;13.486;2023-05-10T00:39:49;12.40;98.40
9305;DHT22;4690;52.422;13.486;2023-05-10T00:42:15;12.30;98.50
9305;DHT22;4690;52.422;13.486;2023-05-10T00:44:41;12.30;98.70
9305;DHT22;4690;52.422;13.486;2023-05-10T00:47:07;12.20;98.60
9305;DHT22;4690;52.422;13.486;2023-05-10T00:49:34;12.10;98.90
9305;DHT22;4690;52.422;13.486;2023-05-10T00:52:01;12.00;98.90
9305;DHT22;4690;52.422;13.486;2023-05-10T00:54:28;12.00;99.20
9305;DHT22;4690;52.422;13.486;2023-05-10T00:56:55;12.00;99.20
9305;DHT22;4690;52.422;13.486;2023-05-10T00:59:22;11.90;99.30
9305;DHT22;4690;52.422;13.486;2023-05-10T01:01:48;11.90;99.50
9305;DHT22;4690;52.422;13.486;2023-05-10T01:04:15;11.80;99.50
9305;DHT22;4690;52.422;13.486;2023-05-10T01:06:41;11.70;99.60
9305;DHT22;4690;52.422;13.486;2023-05-10T01:09:07;11.70;99.70
9305;DHT22;4690;52.422;13.486;2023-05-10T01:11:35;11.70;99.80
9305;DHT22;4690;52.422;13.486;2023-05-10T01:14:03;11.70;99.90
9305;DHT22;4690;52.422;13.486;2023-05-10T01:16:33;11.70;99.90
9305;DHT22;4690;52.422;13.486;2023-05-10T01:19:04;11.70;99.90
9305;DHT22;4690;52.422;13.486;2023-05-10T01:24:44;11.60;99.90
9305;DHT22;4690;52.422;13.486;2023-05-10T01:33:55;11.40;99.90
9305;DHT22;4690;52.422;13.486;2023-05-10T01:36:32;11.40;99.90
9305;DHT22;4690;52.422;13.486;2023-05-10T01:42:10;11.30;99.90
9305;DHT22;4690;52.422;13.486;2023-05-10T01:44:46;11.30;99.90
9305;DHT22;4690;52.422;13.486;2023-05-10T01:47:29;11.30;99.90
9305;DHT22;4690;52.422;13.486;2023-05-10T01:50:03;11.30;99.90
9305;DHT22;4690;52.422;13.486;2023-05-10T01:52:38;11.30;99.90
9305;DHT22;4690;52.422;13.486;2023-05-10T01:55:09;11.30;99.90
9305;DHT22;4690;52.422;13.486;2023-05-10T01:57:42;11.20;99.90
9305;DHT22;4690;52.422;13.486;2023-05-10T02:00:10;11.10;99.90
9305;DHT22;4690;52.422;13.486;2023-05-10T02:02:41;11.10;99.90
9305;DHT22;4690;52.422;13.486;2023-05-10T02:05:12;11.10;99.90
9305;DHT22;4690;52.422;13.486;2023-05-10T02:07:40;11.10;99.90
9305;DHT22;4690;52.422;13.486;2023-05-10T02:10:09;11.00;99.90
9305;DHT22;4690;52.422;13.486;2023-05-10T02:12:37;11.00;99.90
9305;DHT22;4690;52.422;13.486;2023-05-10T02:15:11;11.00;99.90
9305;DHT22;4690;52.422;13.486;2023-05-10T02:17:39;11.00;99.90
9305;DHT22;4690;52.422;13.486;2023-05-10T02:20:10;10.90;99.90
9305;DHT22;4690;52.422;13.486;2023-05-10T02:22:38;11.00;99.90
9305;DHT22;4690;52.422;13.486;2023-05-10T02:25:06;10.90;99.90
9305;DHT22;4690;52.422;13.486;2023-05-10T02:27:35;10.90;99.90
9305;DHT22;4690;52.422;13.486;2023-05-10T02:30:03;10.90;99.90
9305;DHT22;4690;52.422;13.486;2023-05-10T02:32:31;10.80;99.90
9305;DHT22;4690;52.422;13.486;2023-05-10T02:34:58;10.80;99.90
9305;DHT22;4690;52.422;13.486;2023-05-10T02:37:27;10.80;99.90
9305;DHT22;4690;52.422;13.486;2023-05-10T02:39:55;10.80;99.90
9305;DHT22;4690;52.422;13.486;2023-05-10T02:42:27;10.80;99.90
9305;DHT22;4690;52.422;13.486;2023-05-10T02:45:01;10.70;99.90
9305;DHT22;4690;52.422;13.486;2023-05-10T02:47:30;10.70;99.90
9305;DHT22;4690;52.422;13.486;2023-05-10T02:49:55;10.70;99.90
9305;DHT22;4690;52.422;13.486;2023-05-10T02:52:30;10.60;99.90
9305;DHT22;4690;52.422;13.486;2023-05-10T02:55:05;10.70;99.90
9305;DHT22;4690;52.422;13.486;2023-05-10T02:57:34;10.60;99.90
9305;DHT22;4690;52.422;13.486;2023-05-10T03:00:04;10.50;99.90
9305;DHT22;4690;52.422;13.486;2023-05-10T03:02:31;10.50;99.90
9305;DHT22;4690;52.422;13.486;2023-05-10T03:04:56;10.40;99.90
9305;DHT22;4690;52.422;13.486;2023-05-10T03:07:22;10.40;99.90
9305;DHT22;4690;52.422;13.486;2023-05-10T03:09:49;10.40;99.90
9305;DHT22;4690;52.422;13.486;2023-05-10T03:12:52;10.40;99.90
9305;DHT22;4690;52.422;13.486;2023-05-10T03:15:45;10.30;99.90
9305;DHT22;4690;52.422;13.486;2023-05-10T03:18:23;10.30;99.90
9305;DHT22;4690;52.422;13.486;2023-05-10T03:20:59;10.30;99.90
9305;DHT22;4690;52.422;13.486;2023-05-10T03:26:07;10.20;99.90
9305;DHT22;4690;52.422;13.486;2023-05-10T03:28:36;10.30;99.90
9305;DHT22;4690;52.422;13.486;2023-05-10T03:31:04;10.20;99.90
9305;DHT22;4690;52.422;13.486;2023-05-10T03:33:31;10.20;99.90
9305;DHT22;4690;52.422;13.486;2023-05-10T03:35:57;10.20;99.90
9305;DHT22;4690;52.422;13.486;2023-05-10T03:38:23;10.10;99.90
9305;DHT22;4690;52.422;13.486;2023-05-10T03:40:49;10.20;99.90
9305;DHT22;4690;52.422;13.486;2023-05-10T03:43:15;10.20;99.90
9305;DHT22;4690;52.422;13.486;2023-05-10T03:45:41;10.20;99.90
9305;DHT22;4690;52.422;13.486;2023-05-10T03:48:06;10.20;99.90
9305;DHT22;4690;52.422;13.486;2023-05-10T03:50:32;10.20;99.90
9305;DHT22;4690;52.422;13.486;2023-05-10T03:52:58;10.20;99.90
9305;DHT22;4690;52.422;13.486;2023-05-10T03:55:24;10.20;99.90
9305;DHT22;4690;52.422;13.486;2023-05-10T03:57:50;10.10;99.90
9305;DHT22;4690;52.422;13.486;2023-05-10T04:00:16;10.10;99.90
9305;DHT22;4690;52.422;13.486;2023-05-10T04:02:41;10.10;99.90
9305;DHT22;4690;52.422;13.486;2023-05-10T04:05:08;10.10;99.90
9305;DHT22;4690;52.422;13.486;2023-05-10T04:07:34;10.10;99.90
9305;DHT22;4690;52.422;13.486;2023-05-10T04:09:59;10.10;99.90
9305;DHT22;4690;52.422;13.486;2023-05-10T04:12:25;10.10;99.90
9305;DHT22;4690;52.422;13.486;2023-05-10T04:14:51;10.20;99.90
9305;DHT22;4690;52.422;13.486;2023-05-10T04:17:17;10.20;99.90
9305;DHT22;4690;52.422;13.486;2023-05-10T04:19:42;10.20;99.90
9305;DHT22;4690;52.422;13.486;2023-05-10T04:22:08;10.30;99.90
9305;DHT22;4690;52.422;13.486;2023-05-10T04:24:34;10.30;99.90
9305;DHT22;4690;52.422;13.486;2023-05-10T04:27:00;10.40;99.90
9305;DHT22;4690;52.422;13.486;2023-05-10T04:29:25;10.40;99.90
9305;DHT22;4690;52.422;13.486;2023-05-10T04:31:52;10.40;99.90
9305;DHT22;4690;52.422;13.486;2023-05-10T04:34:20;10.50;99.90
9305;DHT22;4690;52.422;13.486;2023-05-10T04:36:46;10.50;99.90
9305;DHT22;4690;52.422;13.486;2023-05-10T04:39:12;10.60;99.90
9305;DHT22;4690;52.422;13.486;2023-05-10T04:41:39;10.70;99.90
9305;DHT22;4690;52.422;13.486;2023-05-10T04:44:05;10.70;99.90
9305;DHT22;4690;52.422;13.486;2023-05-10T04:46:31;10.80;99.90
9305;DHT22;4690;52.422;13.486;2023-05-10T04:48:57;10.80;99.90
9305;DHT22;4690;52.422;13.486;2023-05-10T04:51:23;10.90;99.90
9305;DHT22;4690;52.422;13.486;2023-05-10T04:53:48;11.00;99.90
9305;DHT22;4690;52.422;13.486;2023-05-10T04:56:14;11.10;99.90
9305;DHT22;4690;52.422;13.486;2023-05-10T04:58:40;11.20;99.90
9305;DHT22;4690;52.422;13.486;2023-05-10T05:01:07;11.30;99.90
9305;DHT22;4690;52.422;13.486;2023-05-10T05:03:33;11.40;99.90
9305;DHT22;4690;52.422;13.486;2023-05-10T05:05:59;11.40;99.90
9305;DHT22;4690;52.422;13.486;2023-05-10T05:08:25;11.50;99.90
9305;DHT22;4690;52.422;13.486;2023-05-10T05:10:51;11.60;99.90
9305;DHT22;4690;52.422;13.486;2023-05-10T05:13:17;11.70;99.90
9305;DHT22;4690;52.422;13.486;2023-05-10T05:15:43;11.80;99.90
9305;DHT22;4690;52.422;13.486;2023-05-10T05:18:09;11.90;99.90
9305;DHT22;4690;52.422;13.486;2023-05-10T05:20:35;11.90;99.90
9305;DHT22;4690;52.422;13.486;2023-05-10T05:23:01;12.00;99.90
9305;DHT22;4690;52.422;13.486;2023-05-10T05:25:27;12.10;99.90
9305;DHT22;4690;52.422;13.486;2023-05-10T05:27:53;12.10;99.90
9305;DHT22;4690;52.422;13.486;2023-05-10T05:30:18;12.20;99.90
9305;DHT22;4690;52.422;13.486;2023-05-10T05:32:44;12.30;99.90
9305;DHT22;4690;52.422;13.486;2023-05-10T05:35:12;12.40;99.90
9305;DHT22;4690;52.422;13.486;2023-05-10T05:37:38;12.40;99.90
9305;DHT22;4690;52.422;13.486;2023-05-10T05:40:04;12.50;99.90
9305;DHT22;4690;52.422;13.486;2023-05-10T05:42:31;12.50;99.90
9305;DHT22;4690;52.422;13.486;2023-05-10T05:44:57;12.70;99.90
9305;DHT22;4690;52.422;13.486;2023-05-10T05:47:23;12.70;99.90
9305;DHT22;4690;52.422;13.486;2023-05-10T05:49:49;12.80;99.90
9305;DHT22;4690;52.422;13.486;2023-05-10T05:52:14;13.00;99.90
9305;DHT22;4690;52.422;13.486;2023-05-10T05:54:40;13.00;99.90
9305;DHT22;4690;52.422;13.486;2023-05-10T05:57:06;13.10;99.90
9305;DHT22;4690;52.422;13.486;2023-05-10T05:59:32;13.30;99.90
9305;DHT22;4690;52.422;13.486;2023-05-10T06:01:58;13.40;99.90
9305;DHT22;4690;52.422;13.486;2023-05-10T06:04:24;13.50;99.90
9305;DHT22;4690;52.422;13.486;2023-05-10T06:06:49;13.60;99.90
9305;DHT22;4690;52.422;13.486;2023-05-10T06:09:15;13.80;99.90
9305;DHT22;4690;52.422;13.486;2023-05-10T06:11:41;13.90;99.90
9305;DHT22;4690;52.422;13.486;2023-05-10T06:14:07;14.00;99.90
9305;DHT22;4690;52.422;13.486;2023-05-10T06:16:34;14.10;99.90
9305;DHT22;4690;52.422;13.486;2023-05-10T06:19:00;14.20;99.90
9305;DHT22;4690;52.422;13.486;2023-05-10T06:21:25;14.40;99.90
9305;DHT22;4690;52.422;13.486;2023-05-10T06:23:51;14.60;99.90
9305;DHT22;4690;52.422;13.486;2023-05-10T06:26:17;14.80;99.90
9305;DHT22;4690;52.422;13.486;2023-05-10T06:28:43;14.90;99.90
9305;DHT22;4690;52.422;13.486;2023-05-10T06:31:08;14.90;99.40
9305;DHT22;4690;52.422;13.486;2023-05-10T06:33:36;15.00;99.80
9305;DHT22;4690;52.422;13.486;2023-05-10T06:36:02;15.30;99.90
9305;DHT22;4690;52.422;13.486;2023-05-10T06:38:28;15.40;99.60
9305;DHT22;4690;52.422;13.486;2023-05-10T06:40:54;15.50;99.00
9305;DHT22;4690;52.422;13.486;2023-05-10T06:43:20;15.80;99.40
9305;DHT22;4690;52.422;13.486;2023-05-10T06:45:45;15.90;98.90
9305;DHT22;4690;52.422;13.486;2023-05-10T06:48:11;15.90;98.80
9305;DHT22;4690;52.422;13.486;2023-05-10T06:50:37;15.80;98.50
9305;DHT22;4690;52.422;13.486;2023-05-10T06:53:02;15.90;98.00
9305;DHT22;4690;52.422;13.486;2023-05-10T06:55:29;16.20;98.70
9305;DHT22;4690;52.422;13.486;2023-05-10T06:57:54;16.10;97.90
9305;DHT22;4690;52.422;13.486;2023-05-10T07:00:21;16.30;99.30
9305;DHT22;4690;52.422;13.486;2023-05-10T07:02:46;16.40;98.00
9305;DHT22;4690;52.422;13.486;2023-05-10T07:05:12;16.30;97.90
9305;DHT22;4690;52.422;13.486;2023-05-10T07:07:39;16.20;97.60
9305;DHT22;4690;52.422;13.486;2023-05-10T07:10:06;16.30;98.10
9305;DHT22;4690;52.422;13.486;2023-05-10T07:12:32;16.40;97.70
9305;DHT22;4690;52.422;13.486;2023-05-10T07:14:58;16.50;97.90
9305;DHT22;4690;52.422;13.486;2023-05-10T07:17:24;16.60;97.80
9305;DHT22;4690;52.422;13.486;2023-05-10T07:19:50;16.70;97.70
9305;DHT22;4690;52.422;13.486;2023-05-10T07:22:16;16.90;97.70
9305;DHT22;4690;52.422;13.486;2023-05-10T07:24:42;17.00;97.40
9305;DHT22;4690;52.422;13.486;2023-05-10T07:27:08;17.00;98.00
9305;DHT22;4690;52.422;13.486;2023-05-10T07:29:35;17.20;96.60
9305;DHT22;4690;52.422;13.486;2023-05-10T07:32:01;17.30;97.30
9305;DHT22;4690;52.422;13.486;2023-05-10T07:34:27;17.50;96.80
9305;DHT22;4690;52.422;13.486;2023-05-10T07:36:55;17.40;96.50
9305;DHT22;4690;52.422;13.486;2023-05-10T07:39:21;17.30;96.40
9305;DHT22;4690;52.422;13.486;2023-05-10T07:41:47;17.50;96.20
9305;DHT22;4690;52.422;13.486;2023-05-10T07:44:13;17.60;96.50
9305;DHT22;4690;52.422;13.486;2023-05-10T07:46:38;17.70;96.10
9305;DHT22;4690;52.422;13.486;2023-05-10T07:49:04;17.60;96.30
9305;DHT22;4690;52.422;13.486;2023-05-10T07:51:30;17.70;96.10
9305;DHT22;4690;52.422;13.486;2023-05-10T07:53:57;17.80;96.30
9305;DHT22;4690;52.422;13.486;2023-05-10T07:56:28;17.80;95.70
9305;DHT22;4690;52.422;13.486;2023-05-10T07:58:57;17.90;95.70
9305;DHT22;4690;52.422;13.486;2023-05-10T08:01:31;18.10;95.40
9305;DHT22;4690;52.422;13.486;2023-05-10T08:04:00;18.00;95.20
9305;DHT22;4690;52.422;13.486;2023-05-10T08:06:27;18.10;95.60
9305;DHT22;4690;52.422;13.486;2023-05-10T08:08:55;18.20;95.90
9305;DHT22;4690;52.422;13.486;2023-05-10T08:11:21;18.10;95.50
9305;DHT22;4690;52.422;13.486;2023-05-10T08:13:48;18.30;95.50
9305;DHT22;4690;52.422;13.486;2023-05-10T08:16:16;18.20;95.30
9305;DHT22;4690;52.422;13.486;2023-05-10T08:18:44;18.30;95.50
9305;DHT22;4690;52.422;13.486;2023-05-10T08:21:12;18.40;95.80
9305;DHT22;4690;52.422;13.486;2023-05-10T08:23:39;18.50;95.30
9305;DHT22;4690;52.422;13.486;2023-05-10T08:26:05;18.50;95.60
9305;DHT22;4690;52.422;13.486;2023-05-10T08:28:31;18.80;95.60
9305;DHT22;4690;52.422;13.486;2023-05-10T08:30:57;18.90;94.90
9305;DHT22;4690;52.422;13.486;2023-05-10T08:33:23;18.80;94.70
9305;DHT22;4690;52.422;13.486;2023-05-10T08:35:48;18.90;95.00
9305;DHT22;4690;52.422;13.486;2023-05-10T08:38:14;18.80;95.20
9305;DHT22;4690;52.422;13.486;2023-05-10T08:40:44;18.90;95.30
9305;DHT22;4690;52.422;13.486;2023-05-10T08:43:12;18.90;94.00
9305;DHT22;4690;52.422;13.486;2023-05-10T08:45:42;18.70;94.60
9305;DHT22;4690;52.422;13.486;2023-05-10T08:48:13;18.80;94.80
9305;DHT22;4690;52.422;13.486;2023-05-10T08:50:41;19.00;94.50
9305;DHT22;4690;52.422;13.486;2023-05-10T08:53:12;19.00;95.10
9305;DHT22;4690;52.422;13.486;2023-05-10T08:55:40;19.30;95.90
9305;DHT22;4690;52.422;13.486;2023-05-10T08:58:08;19.20;94.50
9305;DHT22;4690;52.422;13.486;2023-05-10T09:00:35;19.50;93.90
9305;DHT22;4690;52.422;13.486;2023-05-10T09:03:04;19.80;96.00
9305;DHT22;4690;52.422;13.486;2023-05-10T09:05:30;19.70;94.30
9305;DHT22;4690;52.422;13.486;2023-05-10T09:07:56;19.70;94.50
9305;DHT22;4690;52.422;13.486;2023-05-10T09:10:23;19.70;94.70
9305;DHT22;4690;52.422;13.486;2023-05-10T09:12:51;20.00;94.60
9305;DHT22;4690;52.422;13.486;2023-05-10T09:15:19;20.10;93.90
9305;DHT22;4690;52.422;13.486;2023-05-10T09:17:46;20.10;94.60
9305;DHT22;4690;52.422;13.486;2023-05-10T09:20:13;20.40;94.50
9305;DHT22;4690;52.422;13.486;2023-05-10T09:22:39;20.50;94.50
9305;DHT22;4690;52.422;13.486;2023-05-10T09:25:15;20.40;94.30
9305;DHT22;4690;52.422;13.486;2023-05-10T09:27:45;20.30;94.50
9305;DHT22;4690;52.422;13.486;2023-05-10T09:30:18;20.40;93.50
9305;DHT22;4690;52.422;13.486;2023-05-10T09:32:50;20.60;95.60
9305;DHT22;4690;52.422;13.486;2023-05-10T09:35:18;20.80;93.60
9305;DHT22;4690;52.422;13.486;2023-05-10T09:37:48;21.00;94.50
9305;DHT22;4690;52.422;13.486;2023-05-10T09:40:16;20.70;93.60
9305;DHT22;4690;52.422;13.486;2023-05-10T09:42:54;20.70;93.10
9305;DHT22;4690;52.422;13.486;2023-05-10T09:45:27;21.00;93.60
9305;DHT22;4690;52.422;13.486;2023-05-10T09:47:58;21.30;94.20
9305;DHT22;4690;52.422;13.486;2023-05-10T09:50:25;21.20;92.70
9305;DHT22;4690;52.422;13.486;2023-05-10T09:53:02;21.30;93.60
9305;DHT22;4690;52.422;13.486;2023-05-10T09:55:42;21.50;93.00
9305;DHT22;4690;52.422;13.486;2023-05-10T09:58:12;21.50;93.10
9305;DHT22;4690;52.422;13.486;2023-05-10T10:00:41;21.40;92.50
9305;DHT22;4690;52.422;13.486;2023-05-10T10:03:17;21.40;91.70
9305;DHT22;4690;52.422;13.486;2023-05-10T10:05:44;21.40;93.30
9305;DHT22;4690;52.422;13.486;2023-05-10T10:08:13;21.30;91.90
9305;DHT22;4690;52.422;13.486;2023-05-10T10:10:40;21.40;92.60
9305;DHT22;4690;52.422;13.486;2023-05-10T10:13:07;21.60;91.80
9305;DHT22;4690;52.422;13.486;2023-05-10T10:15:34;21.50;92.90
9305;DHT22;4690;52.422;13.486;2023-05-10T10:18:00;21.70;92.50
9305;DHT22;4690;52.422;13.486;2023-05-10T10:20:27;21.60;91.80
9305;DHT22;4690;52.422;13.486;2023-05-10T10:22:53;21.60;91.50
9305;DHT22;4690;52.422;13.486;2023-05-10T10:25:20;21.70;92.80
9305;DHT22;4690;52.422;13.486;2023-05-10T10:35:45;22.10;92.60
9305;DHT22;4690;52.422;13.486;2023-05-10T10:38:12;22.10;91.50
9305;DHT22;4690;52.422;13.486;2023-05-10T10:40:39;22.10;91.50
9305;DHT22;4690;52.422;13.486;2023-05-10T10:43:26;22.00;90.30
9305;DHT22;4690;52.422;13.486;2023-05-10T10:46:18;21.90;92.60
9305;DHT22;4690;52.422;13.486;2023-05-10T10:48:51;21.90;91.10
9305;DHT22;4690;52.422;13.486;2023-05-10T10:51:37;21.90;90.60
9305;DHT22;4690;52.422;13.486;2023-05-10T10:54:10;22.20;92.30
9305;DHT22;4690;52.422;13.486;2023-05-10T10:56:37;22.30;89.90
9305;DHT22;4690;52.422;13.486;2023-05-10T10:59:03;22.10;89.70
9305;DHT22;4690;52.422;13.486;2023-05-10T11:01:33;22.00;90.80
9305;DHT22;4690;52.422;13.486;2023-05-10T11:06:29;22.10;90.50
9305;DHT22;4690;52.422;13.486;2023-05-10T11:09:04;22.10;91.10
9305;DHT22;4690;52.422;13.486;2023-05-10T11:11:34;22.50;92.00
9305;DHT22;4690;52.422;13.486;2023-05-10T11:14:05;22.60;90.40
9305;DHT22;4690;52.422;13.486;2023-05-10T11:16:42;22.60;91.10
9305;DHT22;4690;52.422;13.486;2023-05-10T11:19:11;22.70;90.10
9305;DHT22;4690;52.422;13.486;2023-05-10T11:21:53;22.60;91.70
9305;DHT22;4690;52.422;13.486;2023-05-10T11:24:39;22.70;92.30
9305;DHT22;4690;52.422;13.486;2023-05-10T11:27:05;23.00;90.40
9305;DHT22;4690;52.422;13.486;2023-05-10T11:29:31;23.00;91.40
9305;DHT22;4690;52.422;13.486;2023-05-10T11:31:59;23.20;90.40
9305;DHT22;4690;52.422;13.486;2023-05-10T11:34:30;23.10;90.50
9305;DHT22;4690;52.422;13.486;2023-05-10T11:36:59;23.20;90.60
9305;DHT22;4690;52.422;13.486;2023-05-10T11:39:30;23.30;89.60
9305;DHT22;4690;52.422;13.486;2023-05-10T11:41:57;23.40;90.70
9305;DHT22;4690;52.422;13.486;2023-05-10T11:44:30;23.70;90.80
9305;DHT22;4690;52.422;13.486;2023-05-10T11:47:00;23.40;85.60
9305;DHT22;4690;52.422;13.486;2023-05-10T11:49:27;23.50;88.10
9305;DHT22;4690;52.422;13.486;2023-05-10T11:51:53;23.40;87.50
9305;DHT22;4690;52.422;13.486;2023-05-10T11:54:18;23.10;88.70
9305;DHT22;4690;52.422;13.486;2023-05-10T11:56:44;23.30;88.40
9305;DHT22;4690;52.422;13.486;2023-05-10T11:59:10;23.30;87.00
9305;DHT22;4690;52.422;13.486;2023-05-10T12:01:40;23.40;88.30
9305;DHT22;4690;52.422;13.486;2023-05-10T12:04:06;23.30;85.30
9305;DHT22;4690;52.422;13.486;2023-05-10T12:06:37;23.30;85.30
9305;DHT22;4690;52.422;13.486;2023-05-10T12:09:06;23.30;86.00
9305;DHT22;4690;52.422;13.486;2023-05-10T12:11:37;23.40;87.40
9305;DHT22;4690;52.422;13.486;2023-05-10T12:14:05;23.40;88.10
9305;DHT22;4690;52.422;13.486;2023-05-10T12:16:32;23.30;88.00
9305;DHT22;4690;52.422;13.486;2023-05-10T12:19:00;23.60;90.90
9305;DHT22;4690;52.422;13.486;2023-05-10T12:21:28;23.80;90.00
9305;DHT22;4690;52.422;13.486;2023-05-10T12:24:00;23.90;89.70
9305;DHT22;4690;52.422;13.486;2023-05-10T12:26:28;23.80;88.10
9305;DHT22;4690;52.422;13.486;2023-05-10T12:28:55;23.70;88.50
9305;DHT22;4690;52.422;13.486;2023-05-10T12:31:57;23.50;86.20
9305;DHT22;4690;52.422;13.486;2023-05-10T12:34:34;23.80;90.70
9305;DHT22;4690;52.422;13.486;2023-05-10T12:37:02;23.50;86.40
9305;DHT22;4690;52.422;13.486;2023-05-10T12:39:44;23.60;84.90
9305;DHT22;4690;52.422;13.486;2023-05-10T12:42:11;23.50;85.00
9305;DHT22;4690;52.422;13.486;2023-05-10T12:44:37;23.40;86.80
9305;DHT22;4690;52.422;13.486;2023-05-10T12:47:03;23.40;85.20
9305;DHT22;4690;52.422;13.486;2023-05-10T12:49:28;23.50;85.30
9305;DHT22;4690;52.422;13.486;2023-05-10T12:51:54;23.60;85.10
9305;DHT22;4690;52.422;13.486;2023-05-10T12:54:20;23.60;85.50
9305;DHT22;4690;52.422;13.486;2023-05-10T12:56:46;23.50;85.30
9305;DHT22;4690;52.422;13.486;2023-05-10T12:59:11;23.50;86.20
9305;DHT22;4690;52.422;13.486;2023-05-10T13:01:37;23.50;84.60
9305;DHT22;4690;52.422;13.486;2023-05-10T13:04:03;23.70;86.20
9305;DHT22;4690;52.422;13.486;2023-05-10T13:06:28;23.90;86.00
9305;DHT22;4690;52.422;13.486;2023-05-10T13:08:54;23.90;86.70
9305;DHT22;4690;52.422;13.486;2023-05-10T13:11:20;23.80;86.20
9305;DHT22;4690;52.422;13.486;2023-05-10T13:13:46;24.10;85.30
9305;DHT22;4690;52.422;13.486;2023-05-10T13:16:12;24.20;82.60
9305;DHT22;4690;52.422;13.486;2023-05-10T13:18:38;23.90;83.60
9305;DHT22;4690;52.422;13.486;2023-05-10T13:21:04;24.10;86.00
9305;DHT22;4690;52.422;13.486;2023-05-10T13:23:30;24.10;85.80
9305;DHT22;4690;52.422;13.486;2023-05-10T13:25:56;24.10;84.60
9305;DHT22;4690;52.422;13.486;2023-05-10T13:28:22;24.00;85.90
9305;DHT22;4690;52.422;13.486;2023-05-10T13:30:48;23.90;84.70
9305;DHT22;4690;52.422;13.486;2023-05-10T13:33:13;23.80;82.30
9305;DHT22;4690;52.422;13.486;2023-05-10T13:35:39;23.90;84.30
9305;DHT22;4690;52.422;13.486;2023-05-10T13:38:05;23.90;83.10
9305;DHT22;4690;52.422;13.486;2023-05-10T13:40:33;24.00;84.20
9305;DHT22;4690;52.422;13.486;2023-05-10T13:42:59;24.00;82.10
9305;DHT22;4690;52.422;13.486;2023-05-10T13:45:25;23.80;83.10
9305;DHT22;4690;52.422;13.486;2023-05-10T13:47:51;23.90;82.00
9305;DHT22;4690;52.422;13.486;2023-05-10T13:50:17;23.90;83.20
9305;DHT22;4690;52.422;13.486;2023-05-10T13:52:43;24.10;84.60
9305;DHT22;4690;52.422;13.486;2023-05-10T13:55:09;24.00;81.30
9305;DHT22;4690;52.422;13.486;2023-05-10T13:57:37;23.90;81.50
9305;DHT22;4690;52.422;13.486;2023-05-10T14:00:03;23.80;81.10
9305;DHT22;4690;52.422;13.486;2023-05-10T14:02:30;23.80;81.10
9305;DHT22;4690;52.422;13.486;2023-05-10T14:04:56;23.80;80.90
9305;DHT22;4690;52.422;13.486;2023-05-10T14:07:21;23.70;79.50
9305;DHT22;4690;52.422;13.486;2023-05-10T14:09:47;23.70;80.50
9305;DHT22;4690;52.422;13.486;2023-05-10T14:12:13;23.80;80.80
9305;DHT22;4690;52.422;13.486;2023-05-10T14:14:40;23.90;81.00
9305;DHT22;4690;52.422;13.486;2023-05-10T14:17:05;24.00;81.30
9305;DHT22;4690;52.422;13.486;2023-05-10T14:19:31;24.00;82.10
9305;DHT22;4690;52.422;13.486;2023-05-10T14:21:58;23.90;79.10
9305;DHT22;4690;52.422;13.486;2023-05-10T14:24:25;23.80;80.90
9305;DHT22;4690;52.422;13.486;2023-05-10T14:26:50;23.90;79.70
9305;DHT22;4690;52.422;13.486;2023-05-10T14:29:19;24.00;79.30
9305;DHT22;4690;52.422;13.486;2023-05-10T14:31:46;24.10;80.30
9305;DHT22;4690;52.422;13.486;2023-05-10T14:34:11;24.20;81.20
9305;DHT22;4690;52.422;13.486;2023-05-10T14:36:37;24.00;78.70
9305;DHT22;4690;52.422;13.486;2023-05-10T14:39:03;23.90;79.60
9305;DHT22;4690;52.422;13.486;2023-05-10T14:41:29;24.00;80.70
9305;DHT22;4690;52.422;13.486;2023-05-10T14:43:55;24.00;81.00
9305;DHT22;4690;52.422;13.486;2023-05-10T14:46:21;23.90;80.30
9305;DHT22;4690;52.422;13.486;2023-05-10T14:48:47;23.80;79.80
9305;DHT22;4690;52.422;13.486;2023-05-10T14:51:12;24.00;81.50
9305;DHT22;4690;52.422;13.486;2023-05-10T14:53:38;23.90;79.90
9305;DHT22;4690;52.422;13.486;2023-05-10T14:56:04;23.80;79.40
9305;DHT22;4690;52.422;13.486;2023-05-10T14:58:30;23.70;79.60
9305;DHT22;4690;52.422;13.486;2023-05-10T15:00:56;23.70;79.70
9305;DHT22;4690;52.422;13.486;2023-05-10T15:03:22;23.70;80.10
9305;DHT22;4690;52.422;13.486;2023-05-10T15:05:48;23.70;79.90
9305;DHT22;4690;52.422;13.486;2023-05-10T15:08:14;23.80;80.00
9305;DHT22;4690;52.422;13.486;2023-05-10T15:10:40;23.80;81.50
9305;DHT22;4690;52.422;13.486;2023-05-10T15:13:06;23.70;83.10
9305;DHT22;4690;52.422;13.486;2023-05-10T15:15:31;23.60;82.50
9305;DHT22;4690;52.422;13.486;2023-05-10T15:17:57;23.50;82.90
9305;DHT22;4690;52.422;13.486;2023-05-10T15:20:23;23.40;82.10
9305;DHT22;4690;52.422;13.486;2023-05-10T15:22:48;23.30;82.70
9305;DHT22;4690;52.422;13.486;2023-05-10T15:25:14;23.20;82.00
9305;DHT22;4690;52.422;13.486;2023-05-10T15:27:41;22.90;82.10
9305;DHT22;4690;52.422;13.486;2023-05-10T15:30:09;22.80;82.50
9305;DHT22;4690;52.422;13.486;2023-05-10T15:32:35;22.80;81.80
9305;DHT22;4690;52.422;13.486;2023-05-10T15:35:02;22.80;82.30
9305;DHT22;4690;52.422;13.486;2023-05-10T15:37:28;22.70;82.60
9305;DHT22;4690;52.422;13.486;2023-05-10T15:39:54;22.70;82.50
9305;DHT22;4690;52.422;13.486;2023-05-10T15:42:27;22.70;83.10
9305;DHT22;4690;52.422;13.486;2023-05-10T15:44:53;22.70;83.10
9305;DHT22;4690;52.422;13.486;2023-05-10T15:47:19;22.70;83.80
9305;DHT22;4690;52.422;13.486;2023-05-10T15:49:44;22.60;83.10
9305;DHT22;4690;52.422;13.486;2023-05-10T15:52:10;22.50;83.60
9305;DHT22;4690;52.422;13.486;2023-05-10T15:54:36;22.40;84.60
9305;DHT22;4690;52.422;13.486;2023-05-10T15:57:02;22.50;84.50
9305;DHT22;4690;52.422;13.486;2023-05-10T15:59:27;22.50;83.80
9305;DHT22;4690;52.422;13.486;2023-05-10T16:01:53;22.50;85.50
9305;DHT22;4690;52.422;13.486;2023-05-10T16:04:20;22.50;85.20
9305;DHT22;4690;52.422;13.486;2023-05-10T16:06:46;22.50;85.30
9305;DHT22;4690;52.422;13.486;2023-05-10T16:09:11;22.50;83.70
9305;DHT22;4690;52.422;13.486;2023-05-10T16:11:37;22.30;84.60
9305;DHT22;4690;52.422;13.486;2023-05-10T16:14:03;22.20;85.00
9305;DHT22;4690;52.422;13.486;2023-05-10T16:16:28;22.10;84.60
9305;DHT22;4690;52.422;13.486;2023-05-10T16:18:54;22.00;85.40